Au Sable Chasm, New York
Current Conditions -  °F | °C
As of 12:53 PM on Friday 31 Oct 2014 (Local Time) from KPBG Reporting Station
Clear Clear  
Wind Chill: 43°   Ceiling: Unl
Heat Index: 45°   Visibility: 10mi
Dew Point: 32°   Wind: 5mph
Humidity: 60%   Direction: 80°E
Pressure: 30.04"   Gusts: NA
Location:  44.5125°N, 73.5235°W
Report Text: KPBG 311653Z AUTO 08004KT 10SM CLR 07/00 A3004 RMK AO2 SLP173 T00720000
Loading
Personal Weather Stations






























Interactive Weather Map
Tropical Storm Tracking
New forecast layout! Learn more

10-Day Weather Forecast

Advertisements
Track Severe Weather on mobile